Time;durP1;ratioP1;P1;durP2;ratioP2;P2;SDS_P1;SDS_P2;PMS_P1;PMS_P2;Temp;Humidity;BMP_temperature;BMP_pressure;BME280_temperature;BME280_humidity;BME280_pressure;Samples;Min_cycle;Max_cycle;Signal;HPM_P1;HPM_P2
2021/06/03 00:02:09;;;;;;;6.10;4.00;;;16.60;58.70;;;;;;5084277;28;20043;-40
2021/06/03 00:04:34;;;;;;;6.93;4.32;;;16.60;58.60;;;;;;5083906;28;20047;-40
2021/06/03 00:07:00;;;;;;;7.30;4.10;;;16.50;58.30;;;;;;5084125;28;20055;-40
2021/06/03 00:09:26;;;;;;;5.80;4.60;;;16.50;58.00;;;;;;5084127;28;20075;-39
2021/06/03 00:11:51;;;;;;;7.07;3.90;;;16.50;57.70;;;;;;5085631;28;20028;-40
2021/06/03 00:14:17;;;;;;;7.30;4.18;;;16.40;57.70;;;;;;5083878;28;20108;-39
2021/06/03 00:16:43;;;;;;;4.32;3.78;;;16.30;58.10;;;;;;5083059;28;20044;-40
2021/06/03 00:19:09;;;;;;;7.28;4.22;;;16.30;58.30;;;;;;5083610;28;20033;-39
2021/06/03 00:21:35;;;;;;;5.70;4.03;;;16.30;58.70;;;;;;5083435;28;20040;-40
2021/06/03 00:27:41;;;;;;;8.93;4.28;;;16.30;58.60;;;;;;5085148;28;20119;-39
2021/06/03 00:30:08;;;;;;;5.88;4.22;;;16.10;57.80;;;;;;5083703;28;20032;-40
2021/06/03 00:32:33;;;;;;;7.53;4.10;;;16.20;57.70;;;;;;5084884;28;20048;-39
2021/06/03 00:34:59;;;;;;;5.25;3.80;;;16.20;57.60;;;;;;5083703;28;20029;-39
2021/06/03 00:37:25;;;;;;;6.47;3.90;;;16.30;57.80;;;;;;5083577;28;20320;-39
2021/06/03 00:39:50;;;;;;;5.63;3.88;;;16.20;58.00;;;;;;5083433;28;20042;-40
2021/06/03 00:42:16;;;;;;;6.90;4.22;;;16.30;58.20;;;;;;5082214;28;20100;-39
2021/06/03 00:44:42;;;;;;;5.60;4.07;;;16.20;58.20;;;;;;5084729;28;20032;-39
2021/06/03 00:47:07;;;;;;;5.60;3.95;;;16.20;58.10;;;;;;5083318;28;20103;-39
2021/06/03 00:49:33;;;;;;;5.00;3.63;;;16.20;58.20;;;;;;5083151;28;20082;-39
2021/06/03 00:51:58;;;;;;;5.50;3.67;;;16.20;58.40;;;;;;5083074;28;20099;-40
2021/06/03 00:54:24;;;;;;;7.72;4.32;;;16.20;58.60;;;;;;5083063;28;20028;-40
2021/06/03 00:56:49;;;;;;;4.40;3.78;;;16.20;58.60;;;;;;5084787;28;20058;-40
2021/06/03 00:59:15;;;;;;;8.95;3.78;;;16.30;58.50;;;;;;5082344;28;20368;-39
2021/06/03 01:01:40;;;;;;;6.10;4.35;;;16.20;58.70;;;;;;5083254;28;20032;-39
2021/06/03 01:04:07;;;;;;;6.88;3.95;;;16.20;58.60;;;;;;5082942;28;20060;-40
2021/06/03 01:06:32;;;;;;;7.72;3.90;;;16.10;58.60;;;;;;5082752;28;20336;-40
2021/06/03 01:12:59;;;;;;;5.28;4.18;;;16.00;58.80;;;;;;5084407;28;20020;-40
2021/06/03 01:15:25;;;;;;;6.57;3.97;;;16.00;59.30;;;;;;5081864;28;20116;-40
2021/06/03 01:17:51;;;;;;;6.82;4.57;;;16.00;59.40;;;;;;5083739;28;20034;-39
2021/06/03 01:20:17;;;;;;;5.82;4.50;;;16.00;59.50;;;;;;5082259;28;20392;-40
2021/06/03 01:22:55;;;;;;;7.22;4.40;;;15.90;59.60;;;;;;5081456;28;20052;-40
2021/06/03 01:25:22;;;;;;;7.22;4.30;;;15.80;60.00;;;;;;5081509;28;20055;-39
2021/06/03 01:27:48;;;;;;;5.32;3.95;;;15.80;60.10;;;;;;5082799;28;20036;-40
2021/06/03 01:30:20;;;;;;;6.55;4.55;;;15.80;60.40;;;;;;5082381;28;20063;-39
2021/06/03 01:32:51;;;;;;;6.80;4.60;;;15.80;60.50;;;;;;5084026;28;20028;-40
2021/06/03 01:35:22;;;;;;;6.88;4.40;;;15.80;60.70;;;;;;5082979;28;20036;-40
2021/06/03 01:37:48;;;;;;;7.00;4.45;;;15.80;60.40;;;;;;5082922;28;20071;-40
2021/06/03 01:40:14;;;;;;;8.30;4.93;;;15.80;60.10;;;;;;5082776;28;20224;-39
2021/06/03 01:42:39;;;;;;;7.32;4.53;;;15.70;60.00;;;;;;5082528;28;20045;-40
2021/06/03 01:45:06;;;;;;;6.15;4.63;;;15.70;60.20;;;;;;5082317;28;20037;-40
2021/06/03 01:47:32;;;;;;;8.70;4.70;;;15.70;60.10;;;;;;5083222;28;20365;-40
2021/06/03 01:49:58;;;;;;;6.82;4.70;;;15.70;60.00;;;;;;5081662;28;20062;-39
2021/06/03 01:52:23;;;;;;;7.45;5.10;;;15.60;60.30;;;;;;5081623;28;20385;-39
2021/06/03 01:54:49;;;;;;;7.38;5.30;;;15.50;60.60;;;;;;5085749;28;20036;-40
2021/06/03 01:57:14;;;;;;;7.72;4.50;;;15.60;60.50;;;;;;5086436;28;20272;-40
2021/06/03 01:59:40;;;;;;;5.95;4.57;;;15.50;60.80;;;;;;5087182;28;20024;-39
2021/06/03 02:02:05;;;;;;;6.90;4.70;;;15.50;60.80;;;;;;5086837;28;20326;-40
2021/06/03 02:04:31;;;;;;;7.20;5.10;;;15.40;60.90;;;;;;5086607;28;20029;-40
2021/06/03 02:06:57;;;;;;;5.90;4.93;;;15.50;60.80;;;;;;5086312;28;20372;-40
2021/06/03 02:09:22;;;;;;;6.35;4.70;;;15.40;60.80;;;;;;5086269;28;20028;-40
2021/06/03 02:11:48;;;;;;;5.90;4.85;;;15.30;61.10;;;;;;5086524;28;20031;-40
2021/06/03 02:14:16;;;;;;;6.80;4.90;;;15.30;61.30;;;;;;5086033;28;20092;-40
2021/06/03 02:16:47;;;;;;;7.95;5.03;;;15.30;61.50;;;;;;5085219;28;20037;-39
2021/06/03 02:19:14;;;;;;;;;;;15.30;61.50;;;;;;5086347;28;20036;-39
2021/06/03 02:21:41;;;;;;;7.20;4.70;;;15.30;61.70;;;;;;5085808;28;19950;-39
2021/06/03 02:24:08;;;;;;;5.85;4.88;;;15.30;61.30;;;;;;5085004;28;20024;-39
2021/06/03 02:26:34;;;;;;;5.75;4.65;;;15.30;61.20;;;;;;5087409;28;20021;-40
2021/06/03 02:29:00;;;;;;;7.68;4.80;;;15.30;61.10;;;;;;5086242;28;20106;-39
2021/06/03 02:31:26;;;;;;;7.18;5.00;;;15.30;61.10;;;;;;5084518;28;20104;-40
2021/06/03 02:33:53;;;;;;;8.32;4.95;;;15.30;60.90;;;;;;5085546;28;20081;-40
2021/06/03 02:36:19;;;;;;;5.90;4.68;;;15.30;60.70;;;;;;5084696;28;20138;-39
2021/06/03 02:38:44;;;;;;;6.68;5.00;;;15.20;60.70;;;;;;5086347;28;20060;-39
2021/06/03 02:41:10;;;;;;;10.52;4.80;;;15.20;60.80;;;;;;5085397;28;20037;-39
2021/06/03 02:43:37;;;;;;;7.60;4.93;;;15.10;61.10;;;;;;5085241;28;20035;-40
2021/06/03 02:46:03;;;;;;;6.93;4.82;;;15.10;61.20;;;;;;5085556;28;20029;-40
2021/06/03 02:48:28;;;;;;;6.38;4.75;;;15.10;61.30;;;;;;5085498;28;20040;-39
2021/06/03 02:50:54;;;;;;;6.20;4.70;;;15.20;61.20;;;;;;5086787;28;20220;-39
2021/06/03 02:53:20;;;;;;;7.28;4.47;;;15.20;61.20;;;;;;5085910;28;20036;-39
2021/06/03 02:55:45;;;;;;;7.97;4.72;;;15.10;61.00;;;;;;5085615;28;20043;-40
2021/06/03 02:58:11;;;;;;;5.43;4.75;;;15.10;61.00;;;;;;5084301;28;20307;-39
2021/06/03 03:00:37;;;;;;;6.35;4.65;;;15.10;60.90;;;;;;5085223;28;20056;-39
2021/06/03 03:06:43;;;;;;;8.98;4.43;;;15.10;61.20;;;;;;5086041;28;20058;-39
2021/06/03 03:09:09;;;;;;;7.53;4.82;;;15.10;61.20;;;;;;5085098;28;20040;-39
2021/06/03 03:11:34;;;;;;;9.40;4.90;;;15.10;61.20;;;;;;5068657;28;20029;-40
2021/06/03 03:14:00;;;;;;;7.65;4.82;;;15.00;61.40;;;;;;5085376;28;20032;-39
2021/06/03 03:16:25;;;;;;;7.07;4.53;;;15.00;61.60;;;;;;5085199;28;20229;-39
2021/06/03 03:18:51;;;;;;;6.25;4.50;;;15.00;61.70;;;;;;5084868;28;20088;-39
2021/06/03 03:21:16;;;;;;;6.25;4.45;;;14.90;62.10;;;;;;5084895;28;20206;-40
2021/06/03 03:23:42;;;;;;;5.82;4.38;;;14.90;62.20;;;;;;5087001;28;20090;-39
2021/06/03 03:26:07;;;;;;;6.10;4.18;;;14.80;62.30;;;;;;5085477;28;20205;-39
2021/06/03 03:28:33;;;;;;;5.95;4.15;;;14.70;62.60;;;;;;5084858;28;20221;-39
2021/06/03 03:30:59;;;;;;;6.65;4.20;;;14.80;62.70;;;;;;5084773;28;20090;-39
2021/06/03 03:33:24;;;;;;;7.00;4.10;;;14.80;62.70;;;;;;5083635;28;20093;-39
2021/06/03 03:35:50;;;;;;;6.45;4.20;;;14.80;62.60;;;;;;5086105;28;20232;-39
2021/06/03 03:38:16;;;;;;;6.22;4.32;;;14.90;62.50;;;;;;5085321;28;20037;-40
2021/06/03 03:40:42;;;;;;;7.65;4.45;;;14.80;62.20;;;;;;5084962;28;20043;-39
2021/06/03 03:43:07;;;;;;;6.07;4.50;;;14.90;62.10;;;;;;5083237;28;20045;-39
2021/06/03 03:45:34;;;;;;;6.28;4.30;;;14.90;61.80;;;;;;5084562;28;20212;-40
2021/06/03 03:51:41;;;;;;;6.93;4.00;;;14.80;62.20;;;;;;5085822;28;20386;-39
2021/06/03 03:54:06;;;;;;;6.60;4.20;;;14.80;62.30;;;;;;5084494;28;20274;-39
2021/06/03 03:56:32;;;;;;;6.70;4.30;;;14.80;62.30;;;;;;5085966;28;20036;-39
2021/06/03 03:58:58;;;;;;;7.40;3.83;;;14.90;62.60;;;;;;5084571;28;20294;-40
2021/06/03 04:01:27;;;;;;;5.53;4.15;;;14.90;62.80;;;;;;5084173;28;20035;-39
2021/06/03 04:03:53;;;;;;;5.40;3.95;;;14.90;62.80;;;;;;5084148;28;20048;-40
2021/06/03 04:06:18;;;;;;;5.45;3.97;;;14.90;62.90;;;;;;5083818;28;20206;-39
2021/06/03 04:08:44;;;;;;;6.60;4.32;;;14.90;63.20;;;;;;5085496;28;20267;-39
2021/06/03 04:11:09;;;;;;;9.27;4.47;;;14.90;63.40;;;;;;5084319;28;20063;-39
2021/06/03 04:13:35;;;;;;;7.25;4.30;;;14.90;63.40;;;;;;5083982;28;20040;-40
2021/06/03 04:16:01;;;;;;;7.32;4.05;;;14.90;63.50;;;;;;5083399;28;20029;-39
2021/06/03 04:18:27;;;;;;;6.57;4.35;;;14.90;63.50;;;;;;5083515;28;20028;-39
2021/06/03 04:20:52;;;;;;;6.38;4.40;;;14.90;63.50;;;;;;5085235;28;20028;-39
2021/06/03 04:23:18;;;;;;;6.93;4.15;;;15.00;63.50;;;;;;5083551;28;20114;-39
2021/06/03 04:25:43;;;;;;;5.95;4.10;;;15.00;62.90;;;;;;5083772;28;20336;-40
2021/06/03 04:28:09;;;;;;;5.05;3.90;;;15.00;62.90;;;;;;5083507;28;20040;-40
2021/06/03 04:30:35;;;;;;;6.10;4.25;;;15.00;62.60;;;;;;5083537;28;20086;-39
2021/06/03 04:36:41;;;;;;;7.82;4.20;;;15.10;62.50;;;;;;5084991;28;20016;-40
2021/06/03 04:39:07;;;;;;;5.20;4.20;;;15.10;62.80;;;;;;5083150;28;20220;-40
2021/06/03 04:41:32;;;;;;;5.65;4.25;;;15.20;62.70;;;;;;5085091;28;20245;-40
2021/06/03 04:43:58;;;;;;;5.57;4.32;;;15.20;62.20;;;;;;5083388;28;20028;-40
2021/06/03 04:46:24;;;;;;;5.80;4.07;;;15.30;61.90;;;;;;5082572;28;20037;-40
2021/06/03 04:48:49;;;;;;;6.20;4.43;;;15.30;62.10;;;;;;5083176;28;20047;-40
2021/06/03 04:51:15;;;;;;;6.82;4.03;;;15.40;62.20;;;;;;5083017;28;20040;-40
2021/06/03 04:53:40;;;;;;;5.43;4.07;;;15.40;62.30;;;;;;5084905;28;20087;-40
2021/06/03 04:56:06;;;;;;;6.68;3.90;;;15.40;62.50;;;;;;5083050;28;20048;-40
2021/06/03 04:58:31;;;;;;;5.43;4.13;;;15.50;62.50;;;;;;5082010;28;20063;-40
2021/06/03 05:00:57;;;;;;;6.63;4.53;;;15.60;62.40;;;;;;5083004;28;20051;-39
2021/06/03 05:03:22;;;;;;;6.35;4.80;;;15.60;62.40;;;;;;5082837;28;20036;-40
2021/06/03 05:05:48;;;;;;;7.07;4.88;;;15.70;62.10;;;;;;5084356;28;20255;-40
2021/06/03 05:08:13;;;;;;;7.82;4.40;;;15.80;61.90;;;;;;5081536;28;20112;-40
2021/06/03 05:10:39;;;;;;;6.85;4.15;;;15.80;61.60;;;;;;5082928;28;20063;-40
2021/06/03 05:13:06;;;;;;;5.00;3.88;;;15.90;61.50;;;;;;5082725;28;20051;-39
2021/06/03 05:15:31;;;;;;;7.25;4.30;;;15.90;61.50;;;;;;5082915;28;20201;-40
2021/06/03 05:21:38;;;;;;;6.00;4.00;;;16.10;61.50;;;;;;5084045;28;20020;-40
2021/06/03 05:27:45;;;;;;;6.10;4.20;;;16.20;62.60;;;;;;5083540;28;20081;-40
2021/06/03 05:30:12;;;;;;;4.95;4.13;;;16.30;62.40;;;;;;5082503;28;20044;-40
2021/06/03 05:32:37;;;;;;;9.82;4.88;;;16.30;62.60;;;;;;5084163;28;20088;-40
2021/06/03 05:35:04;;;;;;;5.95;3.70;;;16.40;62.60;;;;;;5083068;28;20037;-40
2021/06/03 05:37:30;;;;;;;5.43;4.00;;;16.40;62.80;;;;;;5083313;28;20048;-40
2021/06/03 05:39:55;;;;;;;5.60;4.22;;;16.40;62.60;;;;;;5082565;28;20032;-40
2021/06/03 05:42:21;;;;;;;6.10;4.13;;;16.50;62.80;;;;;;5082406;28;20063;-40
2021/06/03 05:44:46;;;;;;;6.38;4.30;;;16.50;62.90;;;;;;5084034;28;20350;-40
2021/06/03 05:47:12;;;;;;;4.97;4.15;;;16.60;63.50;;;;;;5083167;28;20166;-40
2021/06/03 05:49:38;;;;;;;4.95;3.83;;;16.60;63.70;;;;;;5081643;28;20041;-40
2021/06/03 05:52:03;;;;;;;6.72;4.10;;;16.70;63.70;;;;;;5081377;28;20208;-40
2021/06/03 05:54:30;;;;;;;7.57;4.10;;;16.70;63.30;;;;;;5082186;28;20029;-40
2021/06/03 05:56:56;;;;;;;5.90;4.05;;;16.80;63.20;;;;;;5083738;28;20040;-40
2021/06/03 05:59:21;;;;;;;5.85;4.00;;;16.80;63.30;;;;;;5083082;28;20033;-40
2021/06/03 06:01:47;;;;;;;5.60;4.00;;;16.90;63.30;;;;;;5082263;28;20032;-40
2021/06/03 06:06:41;;;;;;;6.65;3.90;;;17.10;63.20;;;;;;5081995;28;20043;-40
2021/06/03 06:09:07;;;;;;;5.60;3.83;;;17.20;63.10;;;;;;5082425;28;20032;-40
2021/06/03 06:11:37;;;;;;;6.68;4.15;;;17.20;63.20;;;;;;5083613;28;20251;-40
2021/06/03 06:14:04;;;;;;;8.80;3.83;;;17.30;63.10;;;;;;5082600;28;20186;-40
2021/06/03 06:16:29;;;;;;;5.72;3.97;;;17.40;63.40;;;;;;5082268;28;20028;-40
2021/06/03 06:18:55;;;;;;;4.30;3.50;;;17.50;62.90;;;;;;5081179;28;20386;-40
2021/06/03 06:21:21;;;;;;;6.10;3.90;;;17.50;63.10;;;;;;5082210;28;20328;-40
2021/06/03 06:23:48;;;;;;;5.68;3.35;;;17.60;63.80;;;;;;5083886;28;20048;-40
2021/06/03 06:26:13;;;;;;;6.45;3.30;;;17.80;63.80;;;;;;5082080;28;20040;-40
2021/06/03 06:28:39;;;;;;;6.63;3.33;;;17.80;63.80;;;;;;5081799;28;20336;-40
2021/06/03 06:31:05;;;;;;;6.65;3.50;;;18.00;64.00;;;;;;5081901;28;20336;-40
2021/06/03 06:33:32;;;;;;;6.03;3.80;;;18.10;63.40;;;;;;5082047;28;20329;-40
2021/06/03 06:39:38;;;;;;;4.32;2.83;;;18.30;63.20;;;;;;5084960;28;20020;-40
2021/06/03 06:42:04;;;;;;;4.63;3.25;;;18.40;62.70;;;;;;5085692;28;20041;-40
2021/06/03 06:44:30;;;;;;;5.78;2.90;;;18.50;62.60;;;;;;5087368;28;20028;-40
2021/06/03 06:46:55;;;;;;;9.75;3.38;;;18.70;62.20;;;;;;5086063;28;20067;-40
2021/06/03 06:49:21;;;;;;;4.70;2.95;;;18.80;61.50;;;;;;5085754;28;20224;-40
2021/06/03 06:51:48;;;;;;;6.70;3.60;;;18.80;61.10;;;;;;5085171;28;20059;-40
2021/06/03 06:54:13;;;;;;;5.10;3.10;;;19.00;62.80;;;;;;5085220;28;20286;-41
2021/06/03 06:56:39;;;;;;;6.57;3.10;;;19.10;62.50;;;;;;5087245;28;20021;-41
2021/06/03 06:59:05;;;;;;;4.07;2.97;;;19.20;62.50;;;;;;5084728;28;20040;-41
2021/06/03 07:01:31;;;;;;;4.10;3.17;;;19.30;61.20;;;;;;5085452;28;20047;-40
2021/06/03 07:03:57;;;;;;;5.00;3.08;;;19.30;60.70;;;;;;5085552;28;20028;-40
2021/06/03 07:06:22;;;;;;;7.40;3.58;;;19.50;60.90;;;;;;5085526;28;20039;-41
2021/06/03 07:08:48;;;;;;;9.13;2.90;;;19.50;60.20;;;;;;5087360;28;20090;-40
2021/06/03 07:11:13;;;;;;;5.25;2.88;;;19.60;59.80;;;;;;5085135;28;20036;-40
2021/06/03 07:13:39;;;;;;;3.63;2.75;;;19.70;58.70;;;;;;5085033;28;20221;-40
2021/06/03 07:16:04;;;;;;;7.18;2.80;;;19.80;59.00;;;;;;5085002;28;20331;-40
2021/06/03 07:18:30;;;;;;;4.95;2.88;;;19.90;59.30;;;;;;5084867;28;20036;-40
2021/06/03 07:20:56;;;;;;;4.20;2.60;;;19.90;58.20;;;;;;5084574;28;20040;-41
2021/06/03 07:23:22;;;;;;;3.38;2.50;;;20.00;57.50;;;;;;5086352;28;20048;-41
2021/06/03 07:25:47;;;;;;;7.45;3.10;;;20.10;58.20;;;;;;5085226;28;20331;-41
2021/06/03 07:28:13;;;;;;;6.32;2.92;;;20.20;57.30;;;;;;5085114;28;20150;-40
2021/06/03 07:30:38;;;;;;;3.90;2.90;;;20.30;57.50;;;;;;5084631;28;20044;-40
2021/06/03 07:36:45;;;;;;;4.47;2.73;;;20.50;58.00;;;;;;5086154;28;20015;-40
2021/06/03 07:39:10;;;;;;;4.43;2.60;;;20.70;57.50;;;;;;5084967;28;20343;-40
2021/06/03 07:41:36;;;;;;;4.60;2.90;;;20.80;57.50;;;;;;5086667;28;20027;-41
2021/06/03 07:44:02;;;;;;;4.57;2.90;;;21.00;57.10;;;;;;5085013;28;20044;-40
2021/06/03 07:46:28;;;;;;;4.25;2.92;;;21.10;54.40;;;;;;5084378;28;20043;-40
2021/06/03 07:48:53;;;;;;;4.28;3.00;;;21.30;55.80;;;;;;5084424;28;20033;-41
2021/06/03 07:51:19;;;;;;;7.95;2.83;;;21.30;55.60;;;;;;5082469;28;20091;-40
2021/06/03 07:53:44;;;;;;;3.35;2.70;;;21.40;54.30;;;;;;5085898;28;20039;-41
2021/06/03 07:56:10;;;;;;;3.88;2.70;;;21.60;54.40;;;;;;5084378;28;20041;-41
2021/06/03 07:58:35;;;;;;;5.38;3.25;;;21.80;54.90;;;;;;5084221;28;20240;-41
2021/06/03 08:01:01;;;;;;;5.60;3.03;;;21.90;55.00;;;;;;5084250;28;20036;-41
2021/06/03 08:03:27;;;;;;;5.57;2.90;;;22.10;53.30;;;;;;5084211;28;20217;-42
2021/06/03 08:05:53;;;;;;;5.00;3.00;;;22.20;53.70;;;;;;5085877;28;20088;-41
2021/06/03 08:08:19;;;;;;;5.65;2.92;;;22.30;53.30;;;;;;5083372;28;20043;-42
2021/06/03 08:10:44;;;;;;;4.78;2.70;;;22.40;53.20;;;;;;5083190;28;20037;-41
2021/06/03 08:13:10;;;;;;;3.67;2.60;;;22.50;53.20;;;;;;5083918;28;20043;-43
2021/06/03 08:15:40;;;;;;;8.55;2.58;;;22.70;52.60;;;;;;5083880;28;20032;-44
2021/06/03 08:21:47;;;;;;;3.88;2.92;;;22.90;51.40;;;;;;5085166;28;20048;-44
2021/06/03 08:24:13;;;;;;;4.15;2.80;;;23.10;50.70;;;;;;5083852;28;20036;-43
2021/06/03 08:26:38;;;;;;;3.85;2.55;;;23.30;51.80;;;;;;5085181;28;20339;-44
2021/06/03 08:29:04;;;;;;;4.88;2.60;;;23.40;51.70;;;;;;5083880;28;20036;-43
2021/06/03 08:31:29;;;;;;;4.57;2.85;;;23.60;51.70;;;;;;5083902;28;20047;-42
2021/06/03 08:34:01;;;;;;;4.28;2.70;;;23.80;51.20;;;;;;5083677;28;20043;-43
2021/06/03 08:36:27;;;;;;;4.28;3.13;;;23.80;47.70;;;;;;5083223;28;20039;-44
2021/06/03 08:38:52;;;;;;;3.92;2.50;;;23.90;49.20;;;;;;5085531;28;20047;-43
2021/06/03 08:41:18;;;;;;;3.42;2.63;;;24.00;48.70;;;;;;5083583;28;20036;-43
2021/06/03 08:43:43;;;;;;;6.57;3.00;;;24.10;49.70;;;;;;5082554;28;20039;-42
2021/06/03 08:46:09;;;;;;;9.38;4.20;;;24.20;49.10;;;;;;5065312;28;20033;-42
2021/06/03 08:48:35;;;;;;;9.30;6.68;;;24.30;49.70;;;;;;5083125;28;20036;-43
2021/06/03 08:54:41;;;;;;;5.40;2.85;;;24.30;47.80;;;;;;5084739;28;20011;-42
2021/06/03 08:57:10;;;;;;;3.70;2.92;;;24.50;48.00;;;;;;5082780;28;20032;-40
2021/06/03 08:59:36;;;;;;;3.97;2.95;;;24.60;49.00;;;;;;5084555;28;20214;-40
2021/06/03 09:02:02;;;;;;;5.03;2.85;;;24.70;48.70;;;;;;5082834;28;20032;-40
2021/06/03 09:04:27;;;;;;;4.78;3.15;;;24.80;48.00;;;;;;5082390;28;20375;-39
2021/06/03 09:06:53;;;;;;;5.15;2.58;;;24.90;47.90;;;;;;5082988;28;20032;-40
2021/06/03 09:09:29;;;;;;;4.93;2.78;;;25.00;47.40;;;;;;5082689;28;20100;-40
2021/06/03 09:12:13;;;;;;;6.55;2.95;;;25.20;47.40;;;;;;5084153;28;20228;-43
2021/06/03 09:14:38;;;;;;;5.88;3.35;;;25.20;46.70;;;;;;5083712;28;20032;-40
2021/06/03 09:17:04;;;;;;;5.40;2.83;;;25.30;45.10;;;;;;5083204;28;20037;-40
2021/06/03 09:19:29;;;;;;;7.75;2.97;;;25.30;45.80;;;;;;5083093;28;20036;-41
2021/06/03 09:21:55;;;;;;;4.65;2.92;;;25.30;46.60;;;;;;5082512;28;20100;-44
2021/06/03 09:24:21;;;;;;;3.90;2.85;;;25.40;46.70;;;;;;5082587;28;20028;-42
2021/06/03 09:26:57;;;;;;;8.25;3.53;;;25.50;46.50;;;;;;5084179;28;20323;-40
2021/06/03 09:29:26;;;;;;;4.70;3.10;;;25.60;46.80;;;;;;5083646;28;20107;-44
2021/06/03 09:31:52;;;;;;;5.03;2.85;;;25.60;46.30;;;;;;5082802;28;20094;-44
2021/06/03 09:34:21;;;;;;;13.07;8.27;;;25.60;45.60;;;;;;5082487;28;20051;-44
2021/06/03 09:36:49;;;;;;;5.75;3.08;;;25.60;44.90;;;;;;5082549;28;20078;-43
2021/06/03 09:39:25;;;;;;;5.38;3.00;;;25.80;47.20;;;;;;5081353;28;20054;-43
2021/06/03 09:41:51;;;;;;;5.57;2.75;;;25.80;46.30;;;;;;5082822;28;20050;-43
2021/06/03 09:44:18;;;;;;;4.65;2.90;;;26.00;46.90;;;;;;5082970;28;20313;-45
2021/06/03 09:46:49;;;;;;;4.15;2.65;;;26.00;44.70;;;;;;5082649;28;20033;-49
2021/06/03 09:49:22;;;;;;;8.80;2.83;;;26.00;43.70;;;;;;5082736;28;20037;-44
2021/06/03 09:51:49;;;;;;;3.80;2.70;;;26.00;42.80;;;;;;5081428;28;20047;-45
2021/06/03 09:54:19;;;;;;;4.80;2.70;;;26.20;44.20;;;;;;5082520;28;20032;-45
2021/06/03 09:56:45;;;;;;;4.80;2.45;;;26.20;43.80;;;;;;5084251;28;20096;-46
2021/06/03 09:59:31;;;;;;;5.85;2.53;;;26.30;45.70;;;;;;5082413;28;20053;-47
2021/06/03 10:02:00;;;;;;;4.90;2.90;;;26.50;44.00;;;;;;5082666;28;20040;-42
2021/06/03 10:04:31;;;;;;;4.95;2.90;;;26.60;42.80;;;;;;5082734;28;20328;-44
2021/06/03 10:07:08;;;;;;;4.05;2.70;;;26.60;41.60;;;;;;5082131;28;20036;-44
2021/06/03 10:09:41;;;;;;;4.53;2.80;;;26.70;40.70;;;;;;5081261;28;20040;-45
2021/06/03 10:15:47;;;;;;;8.40;2.88;;;26.80;41.40;;;;;;5087061;28;20012;-41
2021/06/03 10:18:18;;;;;;;5.57;2.90;;;26.90;40.90;;;;;;5086425;28;20100;-45
2021/06/03 10:20:48;;;;;;;6.65;3.00;;;27.00;42.20;;;;;;5087569;28;20039;-45
2021/06/03 10:23:19;;;;;;;5.93;2.73;;;27.20;40.80;;;;;;5084678;28;20109;-43
2021/06/03 10:25:45;;;;;;;4.45;2.65;;;27.30;42.00;;;;;;5086130;28;20039;-52
2021/06/03 10:28:14;;;;;;;3.78;2.88;;;27.40;42.60;;;;;;5085671;28;20245;-48
2021/06/03 10:30:44;;;;;;;3.40;2.70;;;27.30;40.10;;;;;;5085385;28;20081;-46
2021/06/03 10:33:18;;;;;;;7.53;3.60;;;27.20;41.10;;;;;;5085792;28;20071;-44
2021/06/03 10:35:45;;;;;;;5.28;2.58;;;27.30;41.70;;;;;;5087511;28;20084;-41
2021/06/03 10:38:11;;;;;;;5.32;3.05;;;27.30;40.90;;;;;;5086015;28;20036;-41
2021/06/03 10:40:43;;;;;;;8.27;2.80;;;27.30;41.10;;;;;;5085205;28;20056;-41
2021/06/03 10:43:09;;;;;;;4.78;2.85;;;27.50;41.30;;;;;;5085251;28;20035;-41
2021/06/03 10:45:35;;;;;;;3.38;2.85;;;27.50;40.60;;;;;;5085339;28;20285;-41
2021/06/03 10:51:42;;;;;;;5.07;2.78;;;27.80;40.30;;;;;;5086752;28;20031;-41
2021/06/03 10:54:07;;;;;;;3.75;2.58;;;27.80;38.80;;;;;;5085207;28;20312;-40
2021/06/03 10:56:33;;;;;;;7.15;2.63;;;27.90;38.60;;;;;;5086652;28;20029;-41
2021/06/03 10:59:00;;;;;;;4.40;2.80;;;28.00;39.30;;;;;;5085464;28;20033;-40
2021/06/03 11:01:26;;;;;;;6.78;2.95;;;28.20;39.50;;;;;;5085067;28;20355;-43
2021/06/03 11:04:01;;;;;;;6.55;2.80;;;28.30;38.30;;;;;;5085095;28;20032;-41
2021/06/03 11:06:28;;;;;;;5.32;2.85;;;28.30;38.60;;;;;;5085066;28;20024;-41
2021/06/03 11:08:57;;;;;;;4.70;2.60;;;28.30;38.30;;;;;;5086642;28;20033;-41
2021/06/03 11:11:44;;;;;;;3.90;2.83;;;28.40;38.60;;;;;;5085744;28;20039;-42
2021/06/03 11:14:13;;;;;;;4.00;2.65;;;28.30;38.00;;;;;;5085275;28;20036;-40
2021/06/03 11:16:39;;;;;;;6.10;2.95;;;28.30;38.00;;;;;;5084585;28;20328;-41
2021/06/03 11:19:06;;;;;;;4.57;3.05;;;28.20;37.80;;;;;;5084825;28;20029;-40
2021/06/03 11:21:35;;;;;;;5.03;2.92;;;28.00;37.00;;;;;;5084555;28;20082;-41
2021/06/03 11:27:43;;;;;;;;;;;27.60;38.10;;;;;;5086048;28;20031;-41
2021/06/03 11:30:12;;;;;;;6.20;2.60;;;27.30;37.80;;;;;;5086405;28;19939;-41
2021/06/03 11:32:40;;;;;;;5.05;2.63;;;27.50;39.20;;;;;;5086264;28;20028;-41
2021/06/03 11:35:08;;;;;;;4.97;3.55;;;27.40;39.80;;;;;;5086387;28;20024;-41
2021/06/03 11:37:36;;;;;;;6.93;3.60;;;27.40;40.10;;;;;;5086130;28;20035;-42
2021/06/03 11:40:05;;;;;;;5.40;2.90;;;27.30;40.90;;;;;;5086067;28;20058;-41
2021/06/03 11:45:44;;;;;;;3.25;2.65;;;27.20;41.30;;;;;;5056722;23;20049;-68
2021/06/03 11:48:20;;;;;;;5.40;2.80;;;27.20;41.90;;;;;;5043943;28;20048;-70
2021/06/03 11:50:50;;;;;;;5.32;3.13;;;27.30;42.10;;;;;;5042683;28;20052;-69
2021/06/03 11:53:18;;;;;;;5.25;2.83;;;27.30;43.00;;;;;;5044198;28;20037;-71
2021/06/03 11:55:54;;;;;;;4.20;2.97;;;27.30;41.60;;;;;;5075913;28;20220;-68
2021/06/03 11:58:33;;;;;;;4.97;2.90;;;27.50;41.90;;;;;;5045488;28;20084;-72
2021/06/03 12:01:00;;;;;;;5.55;3.05;;;27.70;40.20;;;;;;5044289;28;20037;-72
2021/06/03 12:03:35;;;;;;;4.20;2.60;;;27.80;39.10;;;;;;5043987;28;20052;-72
2021/06/03 12:06:06;;;;;;;7.13;2.95;;;27.90;36.90;;;;;;5043615;28;20088;-69
2021/06/03 12:08:34;;;;;;;5.65;2.60;;;28.00;37.50;;;;;;5074423;28;20048;-70
2021/06/03 12:10:59;;;;;;;4.70;2.85;;;28.00;36.80;;;;;;5043632;28;20025;-69
2021/06/03 12:13:25;;;;;;;4.80;2.80;;;28.10;37.00;;;;;;5045420;28;20342;-68
2021/06/03 12:15:51;;;;;;;5.30;3.00;;;28.30;37.80;;;;;;5044016;28;20033;-68
2021/06/03 12:18:16;;;;;;;5.57;2.85;;;28.30;39.40;;;;;;5042521;28;20041;-67
2021/06/03 12:20:43;;;;;;;6.63;2.63;;;28.30;37.30;;;;;;5043421;28;20037;-68
2021/06/03 12:23:09;;;;;;;4.43;2.50;;;28.10;36.60;;;;;;5075050;28;20037;-67
2021/06/03 12:25:39;;;;;;;3.05;2.42;;;27.90;35.50;;;;;;5045594;28;20085;-66
2021/06/03 12:28:04;;;;;;;6.17;2.60;;;27.80;36.20;;;;;;5025587;28;20197;-67
2021/06/03 12:30:33;;;;;;;5.15;2.50;;;27.70;36.10;;;;;;5042815;28;20286;-67
2021/06/03 12:33:10;;;;;;;4.18;2.65;;;27.60;36.40;;;;;;5042964;28;20029;-66
2021/06/03 12:35:46;;;;;;;9.90;3.22;;;27.50;37.30;;;;;;5043137;28;20036;-66
2021/06/03 12:38:25;;;;;;;4.03;2.92;;;27.30;37.40;;;;;;5043191;28;20088;-67
2021/06/03 12:40:51;;;;;;;3.70;2.30;;;27.30;37.10;;;;;;5042971;28;20036;-67
2021/06/03 12:43:16;;;;;;;6.22;2.80;;;27.20;36.60;;;;;;5048651;28;20029;-68
2021/06/03 12:45:42;;;;;;;6.03;2.90;;;27.10;37.90;;;;;;5063152;28;20056;-68
2021/06/03 12:48:10;;;;;;;3.58;2.78;;;27.10;38.20;;;;;;5063020;28;20047;-68
2021/06/03 12:50:36;;;;;;;6.13;3.00;;;27.10;39.40;;;;;;5062367;28;20045;-68
2021/06/03 12:53:10;;;;;;;4.82;2.83;;;27.00;39.20;;;;;;5061514;28;20260;-68
2021/06/03 12:55:36;;;;;;;8.73;2.78;;;26.90;40.20;;;;;;5064512;28;20033;-68
2021/06/03 12:58:06;;;;;;;6.70;2.88;;;26.70;41.20;;;;;;5063347;28;20044;-68
2021/06/03 13:00:32;;;;;;;3.50;2.60;;;26.70;41.10;;;;;;5062728;28;20037;-68
2021/06/03 13:03:25;;;;;;;4.72;2.75;;;26.80;40.40;;;;;;5062813;28;20029;-68
2021/06/03 13:06:04;;;;;;;6.50;2.70;;;26.90;42.70;;;;;;5061882;28;20060;-68
2021/06/03 13:09:01;;;;;;;4.22;2.67;;;27.10;41.60;;;;;;5063031;28;20040;-68
2021/06/03 13:11:28;;;;;;;5.80;2.60;;;27.20;40.60;;;;;;5063000;28;20044;-68
2021/06/03 13:13:53;;;;;;;7.57;2.50;;;27.30;40.70;;;;;;5061366;28;20033;-68
2021/06/03 13:16:25;;;;;;;4.38;2.33;;;27.40;39.50;;;;;;5064228;28;20129;-67
2021/06/03 13:18:51;;;;;;;4.00;2.65;;;27.40;35.40;;;;;;5061715;28;20037;-67
2021/06/03 13:21:17;;;;;;;4.22;2.40;;;27.40;36.40;;;;;;5062635;28;20083;-70
2021/06/03 13:23:43;;;;;;;6.78;2.53;;;27.50;36.50;;;;;;5062561;28;20295;-67
2021/06/03 13:26:08;;;;;;;3.45;2.30;;;27.50;35.60;;;;;;5062751;28;20044;-67
2021/06/03 13:28:34;;;;;;;5.57;2.63;;;27.60;35.10;;;;;;5046426;28;20043;-67
2021/06/03 13:31:01;;;;;;;4.07;2.40;;;27.60;35.60;;;;;;5061774;28;20155;-68
2021/06/03 13:33:28;;;;;;;4.43;2.53;;;27.70;35.50;;;;;;5062303;28;20037;-67
2021/06/03 13:36:01;;;;;;;7.10;2.30;;;27.80;35.20;;;;;;5062447;28;20039;-67
2021/06/03 13:38:27;;;;;;;5.30;2.30;;;27.80;33.30;;;;;;5062560;28;20037;-68
2021/06/03 13:40:54;;;;;;;3.50;2.25;;;27.80;35.60;;;;;;5062281;28;20090;-68
2021/06/03 13:43:25;;;;;;;4.03;2.10;;;27.90;36.40;;;;;;5064117;28;20033;-73
2021/06/03 13:45:53;;;;;;;4.47;2.28;;;28.00;36.40;;;;;;5062735;28;20335;-74